Time,TemperatureF,DewpointF,PressureIn,WindDirection,WindDirectionDegrees,WindSpeedMPH,WindSpeedGustMPH,Humidity,HourlyPrecipIn,Conditions,Clouds,dailyrainin,SoftwareType,DateUTC
2013-03-20 00:09:00,66.2,65.6,29.80,NNE,22,5.8,-999.0,98,-99.99,,,0.00,Acu-Link.com,2013-03-20 05:09:00,
2013-03-20 00:24:00,66.4,62.4,29.80,ENE,67,10.4,-999.0,87,-99.99,,,0.00,Acu-Link.com,2013-03-20 05:24:00,
2013-03-20 00:39:00,65.8,56.9,29.81,ESE,112,2.7,-999.0,73,-99.99,,,0.00,Acu-Link.com,2013-03-20 05:39:00,
2013-03-20 00:54:00,65.3,54.1,29.83,NNE,22,7.8,-999.0,67,-99.99,,,0.00,Acu-Link.com,2013-03-20 05:54:00,
2013-03-20 01:09:00,64.9,53.3,29.82,ESE,112,4.7,-999.0,66,-99.99,,,0.00,Acu-Link.com,2013-03-20 06:09:00,
2013-03-20 01:24:00,64.6,52.6,29.84,East,90,4.2,-999.0,65,-99.99,,,0.00,Acu-Link.com,2013-03-20 06:24:00,
2013-03-20 01:39:00,64.4,52.4,29.85,East,90,3.7,-999.0,65,-99.99,,,0.00,Acu-Link.com,2013-03-20 06:39:00,
2013-03-20 01:54:00,64.2,51.3,29.85,NNE,22,4.2,-999.0,63,-99.99,,,0.00,Acu-Link.com,2013-03-20 06:54:00,
2013-03-20 02:10:00,63.9,51.1,29.87,NNW,337,6.8,-999.0,63,-99.99,,,0.00,Acu-Link.com,2013-03-20 07:10:00,
2013-03-20 02:25:00,63.9,49.7,29.89,NNE,22,11.4,-999.0,60,-99.99,,,0.00,Acu-Link.com,2013-03-20 07:25:00,
2013-03-20 02:40:00,63.9,47.9,29.90,NNW,337,7.3,-999.0,56,-99.99,,,0.00,Acu-Link.com,2013-03-20 07:40:00,
2013-03-20 02:55:00,63.5,47.0,29.89,North,0,8.3,-999.0,55,-99.99,,,0.00,Acu-Link.com,2013-03-20 07:55:00,
2013-03-20 03:15:00,63.1,46.7,29.89,NNW,337,7.8,-999.0,55,-99.99,,,0.00,Acu-Link.com,2013-03-20 08:15:00,
2013-03-20 03:30:00,63.1,46.7,29.89,NE,45,10.4,-999.0,55,-99.99,,,0.00,Acu-Link.com,2013-03-20 08:30:00,
2013-03-20 03:45:00,61.7,45.8,29.89,East,90,6.8,-999.0,56,-99.99,,,0.00,Acu-Link.com,2013-03-20 08:45:00,
2013-03-20 04:00:00,61.7,45.8,29.91,East,90,8.9,-999.0,56,-99.99,,,0.00,Acu-Link.com,2013-03-20 09:00:00,
2013-03-20 04:15:00,61.3,45.9,29.91,NE,45,6.8,-999.0,57,-99.99,,,0.00,Acu-Link.com,2013-03-20 09:15:00,
2013-03-20 04:30:00,59.9,48.5,29.92,NNW,337,6.8,-999.0,66,-99.99,,,0.00,Acu-Link.com,2013-03-20 09:30:00,
2013-03-20 04:45:00,57.9,50.4,29.92,East,90,6.8,-999.0,76,-99.99,,,0.00,Acu-Link.com,2013-03-20 09:45:00,
2013-03-20 05:00:00,57.6,50.8,29.91,North,0,9.9,-999.0,78,-99.99,,,0.00,Acu-Link.com,2013-03-20 10:00:00,
2013-03-20 05:16:00,57.2,52.4,29.92,ENE,67,4.7,-999.0,84,-99.99,,,0.00,Acu-Link.com,2013-03-20 10:16:00,
2013-03-20 05:31:00,57.2,53.4,29.93,ENE,67,4.7,-999.0,87,-99.99,,,0.00,Acu-Link.com,2013-03-20 10:31:00,
2013-03-20 06:16:00,56.3,54.6,29.96,NNE,22,4.2,-999.0,94,-99.99,,,0.00,Acu-Link.com,2013-03-20 11:16:00,
2013-03-20 06:31:00,55.6,55.0,29.97,SE,135,0.0,-999.0,98,-99.99,,,0.01,Acu-Link.com,2013-03-20 11:31:00,
2013-03-20 06:46:00,54.9,54.3,29.97,East,90,4.2,-999.0,98,-99.99,,,0.02,Acu-Link.com,2013-03-20 11:46:00,
2013-03-20 07:01:00,54.1,53.5,29.96,ESE,112,5.8,-999.0,98,-99.99,,,0.16,Acu-Link.com,2013-03-20 12:01:00,
2013-03-20 07:16:00,54.0,53.4,29.96,NNE,22,2.7,-999.0,98,-99.99,,,0.18,Acu-Link.com,2013-03-20 12:16:00,
2013-03-20 07:32:00,53.8,53.2,29.95,ESE,112,3.7,-999.0,98,-99.99,,,0.18,Acu-Link.com,2013-03-20 12:32:00,
2013-03-20 07:47:00,53.8,53.2,29.95,SE,135,2.2,-999.0,98,-99.99,,,0.18,Acu-Link.com,2013-03-20 12:47:00,
2013-03-20 08:32:00,54.0,53.4,29.99,North,0,11.4,-999.0,98,-99.99,,,0.18,Acu-Link.com,2013-03-20 13:32:00,
2013-03-20 08:47:00,53.8,53.2,29.99,NNE,22,6.3,-999.0,98,-99.99,,,0.18,Acu-Link.com,2013-03-20 13:47:00,
2013-03-20 09:02:00,54.0,53.4,30.01,NE,45,5.3,-999.0,98,-99.99,,,0.18,Acu-Link.com,2013-03-20 14:02:00,
2013-03-20 09:17:00,53.6,53.0,30.03,NNW,337,9.9,-999.0,98,-99.99,,,0.19,Acu-Link.com,2013-03-20 14:17:00,
2013-03-20 09:32:00,53.8,53.2,30.03,NE,45,6.8,-999.0,98,-99.99,,,0.19,Acu-Link.com,2013-03-20 14:32:00,
2013-03-20 09:48:00,54.1,53.5,30.02,NE,45,11.9,-999.0,98,-99.99,,,0.19,Acu-Link.com,2013-03-20 14:48:00,
2013-03-20 10:03:00,56.3,55.7,30.02,East,90,9.9,-999.0,98,-99.99,,,0.19,Acu-Link.com,2013-03-20 15:03:00,
2013-03-20 10:18:00,57.4,55.1,30.03,North,0,6.8,-999.0,92,-99.99,,,0.19,Acu-Link.com,2013-03-20 15:18:00,
2013-03-20 10:33:00,59.0,55.4,30.03,East,90,8.9,-999.0,88,-99.99,,,0.19,Acu-Link.com,2013-03-20 15:33:00,
2013-03-20 10:48:00,60.1,55.6,30.03,NE,45,7.8,-999.0,85,-99.99,,,0.19,Acu-Link.com,2013-03-20 15:48:00,
2013-03-20 11:03:00,61.5,56.0,30.04,East,90,6.3,-999.0,82,-99.99,,,0.19,Acu-Link.com,2013-03-20 16:03:00,
2013-03-20 11:18:00,62.8,56.2,30.04,East,90,8.3,-999.0,79,-99.99,,,0.19,Acu-Link.com,2013-03-20 16:18:00,
2013-03-20 11:33:00,62.8,55.8,30.03,NNE,22,8.3,-999.0,78,-99.99,,,0.19,Acu-Link.com,2013-03-20 16:33:00,
2013-03-20 11:48:00,64.8,56.7,30.03,North,0,7.3,-999.0,75,-99.99,,,0.19,Acu-Link.com,2013-03-20 16:48:00,
2013-03-20 12:04:00,65.3,56.4,30.02,East,90,9.4,-999.0,73,-99.99,,,0.19,Acu-Link.com,2013-03-20 17:04:00,
2013-03-20 12:19:00,67.3,57.6,30.02,ENE,67,6.8,-999.0,71,-99.99,,,0.19,Acu-Link.com,2013-03-20 17:19:00,
2013-03-20 12:34:00,68.9,57.5,30.01,NW,315,11.4,-999.0,67,-99.99,,,0.19,Acu-Link.com,2013-03-20 17:34:00,
2013-03-20 12:49:00,69.8,55.3,30.00,NE,45,9.9,-999.0,60,-99.99,,,0.19,Acu-Link.com,2013-03-20 17:49:00,
2013-03-20 13:04:00,70.0,53.6,30.00,NNE,22,12.5,-999.0,56,-99.99,,,0.19,Acu-Link.com,2013-03-20 18:04:00,
2013-03-20 13:19:00,69.8,51.9,29.99,NE,45,12.5,-999.0,53,-99.99,,,0.19,Acu-Link.com,2013-03-20 18:19:00,
2013-03-20 13:34:00,71.6,53.6,29.98,NE,45,7.3,-999.0,53,-99.99,,,0.19,Acu-Link.com,2013-03-20 18:34:00,
2013-03-20 13:49:00,72.1,51.9,29.98,North,0,12.5,-999.0,49,-99.99,,,0.19,Acu-Link.com,2013-03-20 18:49:00,
2013-03-20 14:05:00,71.4,50.1,29.96,NW,315,9.4,-999.0,47,-99.99,,,0.19,Acu-Link.com,2013-03-20 19:05:00,
2013-03-20 14:20:00,72.3,49.8,29.95,NNE,22,10.9,-999.0,45,-99.99,,,0.19,Acu-Link.com,2013-03-20 19:20:00,
2013-03-20 14:35:00,73.4,46.9,29.95,NE,45,10.4,-999.0,39,-99.99,,,0.19,Acu-Link.com,2013-03-20 19:35:00,
2013-03-20 14:50:00,73.6,45.0,29.94,ESE,112,10.4,-999.0,36,-99.99,,,0.19,Acu-Link.com,2013-03-20 19:50:00,
2013-03-20 15:05:00,73.8,44.4,29.92,NNE,22,13.0,-999.0,35,-99.99,,,0.19,Acu-Link.com,2013-03-20 20:05:00,
2013-03-20 15:20:00,74.3,44.9,29.91,NW,315,5.8,-999.0,35,-99.99,,,0.19,Acu-Link.com,2013-03-20 20:20:00,
2013-03-20 15:35:00,74.1,43.9,29.91,NW,315,6.8,-999.0,34,-99.99,,,0.19,Acu-Link.com,2013-03-20 20:35:00,
2013-03-20 15:50:00,74.1,43.1,29.92,NNE,22,7.3,-999.0,33,-99.99,,,0.19,Acu-Link.com,2013-03-20 20:50:00,
2013-03-20 16:05:00,74.7,42.9,29.90,East,90,5.3,-999.0,32,-99.99,,,0.19,Acu-Link.com,2013-03-20 21:05:00,
2013-03-20 16:21:00,75.0,42.3,29.90,NE,45,14.5,-999.0,31,-99.99,,,0.19,Acu-Link.com,2013-03-20 21:21:00,
2013-03-20 16:36:00,73.9,39.6,29.90,NNE,22,8.9,-999.0,29,-99.99,,,0.19,Acu-Link.com,2013-03-20 21:36:00,
2013-03-20 17:51:00,73.0,38.9,29.89,East,90,10.4,-999.0,29,-99.99,,,0.19,Acu-Link.com,2013-03-20 22:51:00,
2013-03-20 18:06:00,72.9,37.9,29.89,NE,45,8.9,-999.0,28,-99.99,,,0.19,Acu-Link.com,2013-03-20 23:06:00,
2013-03-20 18:21:00,72.5,39.3,29.89,NE,45,6.3,-999.0,30,-99.99,,,0.19,Acu-Link.com,2013-03-20 23:21:00,
2013-03-20 18:37:00,71.1,39.7,29.89,NE,45,5.3,-999.0,32,-99.99,,,0.19,Acu-Link.com,2013-03-20 23:37:00,
2013-03-20 18:52:00,70.2,40.5,29.90,NNE,22,6.8,-999.0,34,-99.99,,,0.19,Acu-Link.com,2013-03-20 23:52:00,
2013-03-20 19:07:00,68.7,40.7,29.90,NNE,22,3.2,-999.0,36,-99.99,,,0.19,Acu-Link.com,2013-03-21 00:07:00,
2013-03-20 19:22:00,67.6,41.1,29.90,East,90,2.2,-999.0,38,-99.99,,,0.19,Acu-Link.com,2013-03-21 00:22:00,
2013-03-20 19:37:00,65.5,41.2,29.90,NE,45,0.0,-999.0,41,-99.99,,,0.19,Acu-Link.com,2013-03-21 00:37:00,
2013-03-20 19:52:00,63.1,42.5,29.89,NE,45,1.7,-999.0,47,-99.99,,,0.19,Acu-Link.com,2013-03-21 00:52:00,
2013-03-20 20:07:00,61.3,43.5,29.89,ESE,112,0.0,-999.0,52,-99.99,,,0.19,Acu-Link.com,2013-03-21 01:07:00,
2013-03-20 20:22:00,59.4,44.2,29.90,ENE,67,1.7,-999.0,57,-99.99,,,0.19,Acu-Link.com,2013-03-21 01:22:00,
2013-03-20 20:37:00,58.1,43.4,29.89,NE,45,0.0,-999.0,58,-99.99,,,0.19,Acu-Link.com,2013-03-21 01:37:00,
2013-03-20 20:53:00,57.0,43.7,29.90,NE,45,0.0,-999.0,61,-99.99,,,0.19,Acu-Link.com,2013-03-21 01:53:00,
2013-03-20 21:08:00,55.4,42.2,29.90,NE,45,0.0,-999.0,61,-99.99,,,0.19,Acu-Link.com,2013-03-21 02:08:00,
2013-03-20 21:23:00,53.8,44.2,29.90,SE,135,0.0,-999.0,70,-99.99,,,0.19,Acu-Link.com,2013-03-21 02:23:00,
2013-03-20 21:38:00,52.9,46.2,29.91,NW,315,0.0,-999.0,78,-99.99,,,0.19,Acu-Link.com,2013-03-21 02:38:00,
2013-03-20 21:53:00,52.3,45.0,29.91,ENE,67,0.0,-999.0,76,-99.99,,,0.19,Acu-Link.com,2013-03-21 02:53:00,
2013-03-20 22:23:00,50.9,46.2,29.91,SSE,157,0.0,-999.0,84,-99.99,,,0.19,Acu-Link.com,2013-03-21 03:23:00,
2013-03-20 22:38:00,50.2,46.8,29.91,NNE,22,0.0,-999.0,88,-99.99,,,0.19,Acu-Link.com,2013-03-21 03:38:00,
2013-03-20 22:53:00,49.8,46.1,29.91,ESE,112,0.0,-999.0,87,-99.99,,,0.19,Acu-Link.com,2013-03-21 03:53:00,
2013-03-20 23:09:00,49.8,45.8,29.90,NNE,22,0.0,-999.0,86,-99.99,,,0.19,Acu-Link.com,2013-03-21 04:09:00,
2013-03-20 23:24:00,49.8,47.0,29.90,ESE,112,0.0,-999.0,90,-99.99,,,0.19,Acu-Link.com,2013-03-21 04:24:00,
2013-03-20 23:39:00,50.4,44.5,29.90,SE,135,0.0,-999.0,80,-99.99,,,0.19,Acu-Link.com,2013-03-21 04:39:00,
2013-03-20 23:54:00,50.9,45.9,29.90,SE,135,0.0,-999.0,83,-99.99,,,0.19,Acu-Link.com,2013-03-21 04:54:00,